Time;durP1;ratioP1;P1;durP2;ratioP2;P2;SDS_P1;SDS_P2;PMS_P1;PMS_P2;Temp;Humidity;BMP_temperature;BMP_pressure;BME280_temperature;BME280_humidity;BME280_pressure;Samples;Min_cycle;Max_cycle;Signal;HPM_P1;HPM_P2
2023/08/07 00:00:23;;;;;;;7.38;2.28;;;;;;;17.39;100.00;99630.34;5129256;28;20522;-73
2023/08/07 00:02:53;;;;;;;7.70;2.65;;;;;;;17.24;100.00;99633.31;5127905;28;20043;-71
2023/08/07 00:05:24;;;;;;;4.28;2.90;;;;;;;17.31;100.00;99623.97;5125479;28;20066;-72
2023/08/07 00:07:54;;;;;;;7.50;2.95;;;;;;;17.18;100.00;99626.69;5127015;28;20046;-71
2023/08/07 00:10:25;;;;;;;4.82;2.72;;;;;;;17.29;100.00;99636.44;5125104;28;20050;-73
2023/08/07 00:12:56;;;;;;;5.47;2.80;;;;;;;17.32;100.00;99630.91;5126410;28;20044;-73
2023/08/07 00:15:26;;;;;;;4.78;2.90;;;;;;;17.23;100.00;99632.47;5124530;28;20039;-73
2023/08/07 00:17:57;;;;;;;7.25;3.00;;;;;;;17.06;100.00;99634.72;5125606;28;20031;-73
2023/08/07 00:20:27;;;;;;;6.95;3.03;;;;;;;17.07;100.00;99641.69;5122166;28;20035;-73
2023/08/07 00:22:57;;;;;;;6.05;2.97;;;;;;;17.00;100.00;99643.94;5123877;28;20031;-73
2023/08/07 00:25:27;;;;;;;5.05;2.90;;;;;;;17.05;100.00;99640.97;5117497;28;20031;-72
2023/08/07 00:27:58;;;;;;;4.53;2.85;;;;;;;17.20;100.00;99637.16;5126539;28;20132;-72
2023/08/07 00:30:28;;;;;;;8.00;3.45;;;;;;;17.21;100.00;99639.69;5124777;28;20035;-73
2023/08/07 00:32:58;;;;;;;7.82;3.30;;;;;;;17.12;100.00;99643.00;5125725;28;20030;-73
2023/08/07 00:35:28;;;;;;;5.88;3.40;;;;;;;17.03;100.00;99645.53;5124730;28;20469;-73
2023/08/07 00:37:59;;;;;;;8.85;3.30;;;;;;;17.05;100.00;99640.97;5123298;28;20023;-73
2023/08/07 00:40:37;;;;;;;5.55;3.20;;;;;;;17.04;100.00;99639.28;5124405;28;20034;-73
2023/08/07 00:43:07;;;;;;;6.88;3.47;;;;;;;17.12;100.00;99640.38;5122175;28;20038;-73
2023/08/07 00:45:42;;;;;;;7.40;3.40;;;;;;;17.08;100.00;99638.09;5117368;28;20606;-73
2023/08/07 00:48:13;;;;;;;8.45;3.38;;;;;;;17.06;100.00;99640.00;5120707;28;20026;-72
2023/08/07 00:50:45;;;;;;;9.60;3.83;;;;;;;17.03;100.00;99632.31;5131556;28;20066;-74
2023/08/07 00:53:16;;;;;;;5.03;3.47;;;;;;;17.07;100.00;99636.41;5126575;28;20536;-73
2023/08/07 00:55:47;;;;;;;6.97;3.60;;;;;;;17.02;100.00;99638.56;5124905;28;20041;-73
2023/08/07 00:58:18;;;;;;;5.65;3.25;;;;;;;17.21;100.00;99654.66;5119962;28;20159;-73
2023/08/07 01:00:49;;;;;;;5.63;3.38;;;;;;;17.21;100.00;99652.03;5124575;28;20100;-72
2023/08/07 01:03:19;;;;;;;7.72;3.05;;;;;;;17.16;100.00;99660.31;5127488;28;20052;-73
2023/08/07 01:05:49;;;;;;;7.07;3.00;;;;;;;17.09;100.00;99655.59;5128013;28;20042;-73
2023/08/07 01:08:20;;;;;;;6.35;2.88;;;;;;;16.94;100.00;99646.25;5129675;28;20525;-72
2023/08/07 01:11:05;;;;;;;5.93;2.70;;;;;;;16.86;100.00;99640.69;5128348;28;20480;-73
2023/08/07 01:13:42;;;;;;;4.93;2.55;;;;;;;16.64;100.00;99632.72;5117663;28;20073;-72
2023/08/07 01:16:26;;;;;;;4.13;2.72;;;;;;;16.65;100.00;99634.41;5127086;28;20031;-73
2023/08/07 01:18:57;;;;;;;5.20;2.03;;;;;;;16.56;100.00;99637.72;5152372;28;20369;-73
2023/08/07 01:21:27;;;;;;;4.43;1.95;;;;;;;16.38;100.00;99635.63;5134710;28;20062;-73
2023/08/07 01:23:57;;;;;;;4.13;2.20;;;;;;;16.36;100.00;99637.53;5130067;28;20035;-73
2023/08/07 01:26:28;;;;;;;3.55;2.08;;;;;;;16.33;100.00;99633.28;5142994;23;20443;-72
2023/08/07 01:29:14;;;;;;;4.80;2.28;;;;;;;16.37;100.00;99637.41;5185239;28;20056;-73
2023/08/07 01:31:49;;;;;;;4.60;2.00;;;;;;;16.32;100.00;99638.66;5210674;28;20021;-74
2023/08/07 01:34:22;;;;;;;3.65;1.88;;;;;;;16.15;100.00;99629.34;5187438;28;20029;-72
2023/08/07 01:36:54;;;;;;;4.35;2.08;;;;;;;16.26;100.00;99629.44;5194274;28;20021;-73
2023/08/07 01:39:25;;;;;;;4.82;2.30;;;;;;;16.13;100.00;99638.31;5206066;28;20461;-73
2023/08/07 01:41:56;;;;;;;5.25;2.50;;;;;;;16.16;100.00;99636.31;5205043;28;20029;-73
2023/08/07 01:44:26;;;;;;;5.00;2.33;;;;;;;16.22;100.00;99635.03;5204547;28;20076;-74
2023/08/07 01:46:56;;;;;;;4.72;2.45;;;;;;;16.32;100.00;99633.38;5188220;28;20036;-74
2023/08/07 01:49:27;;;;;;;6.93;2.78;;;;;;;16.26;100.00;99636.47;5197177;28;20506;-73
2023/08/07 01:51:57;;;;;;;7.55;2.55;;;;;;;16.24;100.00;99627.84;5205332;28;20021;-74
2023/08/07 01:54:27;;;;;;;5.63;2.63;;;;;;;16.20;100.00;99626.41;5207995;28;20032;-73
2023/08/07 01:56:57;;;;;;;5.35;2.88;;;;;;;16.21;100.00;99631.53;5207676;28;20079;-73
2023/08/07 01:59:28;;;;;;;8.15;2.90;;;;;;;16.23;100.00;99626.16;5205079;28;20602;-73
2023/08/07 02:01:58;;;;;;;5.13;3.03;;;;;;;16.37;100.00;99629.50;5185839;28;20024;-73
2023/08/07 02:04:28;;;;;;;4.90;2.60;;;;;;;16.34;100.00;99628.81;5186806;28;20425;-73
2023/08/07 02:06:59;;;;;;;7.38;3.33;;;;;;;16.31;100.00;99629.91;5205769;28;20509;-74
2023/08/07 02:09:29;;;;;;;5.50;3.20;;;;;;;16.13;100.00;99633.06;5207402;28;20032;-73
2023/08/07 02:12:00;;;;;;;4.45;3.10;;;;;;;16.21;100.00;99634.16;5207396;28;20299;-73
2023/08/07 02:14:30;;;;;;;7.55;2.92;;;;;;;16.28;100.00;99632.78;5207264;28;20052;-73
2023/08/07 02:17:00;;;;;;;4.85;3.17;;;;;;;16.31;100.00;99622.00;5203520;28;20025;-73
2023/08/07 02:19:31;;;;;;;6.93;3.17;;;;;;;16.33;100.00;99625.38;5201499;28;20091;-74
2023/08/07 02:22:02;;;;;;;7.05;3.85;;;;;;;16.35;100.00;99628.75;5186616;28;20749;-74
2023/08/07 02:24:32;;;;;;;8.30;3.95;;;;;;;16.26;100.00;99632.06;5207901;28;20405;-73
2023/08/07 02:27:03;;;;;;;8.02;4.10;;;;;;;16.38;100.00;99625.88;5204835;28;20104;-73
2023/08/07 02:29:36;;;;;;;9.45;4.28;;;;;;;16.43;100.00;99633.47;5204908;28;20025;-73
2023/08/07 02:32:06;;;;;;;8.90;4.40;;;;;;;16.40;100.00;99623.16;5203305;28;20276;-74
2023/08/07 02:34:37;;;;;;;7.55;4.35;;;;;;;16.39;100.00;99627.56;5200281;28;20276;-73
2023/08/07 02:37:07;;;;;;;7.97;3.80;;;;;;;16.39;100.00;99635.47;5205599;28;20114;-73
2023/08/07 02:39:37;;;;;;;8.02;3.88;;;;;;;16.41;100.00;99641.47;5203372;28;20032;-73
2023/08/07 02:42:08;;;;;;;5.30;4.00;;;;;;;16.33;100.00;99635.91;5206830;28;20040;-74
2023/08/07 02:44:38;;;;;;;9.38;4.22;;;;;;;16.45;100.00;99634.19;5204681;28;20028;-74
2023/08/07 02:47:08;;;;;;;7.88;4.28;;;;;;;16.34;100.00;99642.88;5202550;28;20380;-73
2023/08/07 02:49:39;;;;;;;7.10;3.97;;;;;;;16.38;100.00;99646.16;5210116;28;20045;-73
2023/08/07 02:52:09;;;;;;;5.28;3.67;;;;;;;16.40;100.00;99646.88;5213324;28;20108;-73
2023/08/07 02:54:39;;;;;;;6.13;4.20;;;;;;;16.22;100.00;99646.41;5197926;28;20478;-73
2023/08/07 02:57:09;;;;;;;7.43;4.28;;;;;;;16.34;100.00;99649.94;5206121;28;20033;-72
2023/08/07 02:59:40;;;;;;;9.73;4.63;;;;;;;16.29;100.00;99658.19;5205273;28;20550;-74
2023/08/07 03:02:10;;;;;;;8.25;5.40;;;;;;;16.27;100.00;99641.66;5207307;28;20144;-73
2023/08/07 03:04:40;;;;;;;8.27;5.07;;;;;;;16.31;100.00;99655.44;5209807;28;20560;-74
2023/08/07 03:07:11;;;;;;;8.82;5.32;;;;;;;16.29;100.00;99657.34;5190061;28;20028;-72
2023/08/07 03:09:45;;;;;;;6.63;5.13;;;;;;;16.28;100.00;99656.50;5205764;28;20130;-74
2023/08/07 03:12:15;;;;;;;10.00;5.13;;;;;;;16.19;100.00;99651.91;5187828;28;20021;-73
2023/08/07 03:14:45;;;;;;;10.13;6.13;;;;;;;16.29;100.00;99649.44;5214800;28;20032;-73
2023/08/07 03:17:16;;;;;;;9.73;5.30;;;;;;;16.20;100.00;99644.84;5205472;28;20491;-74
2023/08/07 03:19:46;;;;;;;9.18;4.90;;;;;;;16.15;100.00;99654.88;5205447;28;20163;-74
2023/08/07 03:22:16;;;;;;;9.32;4.90;;;;;;;16.11;100.00;99649.00;5207794;28;20029;-73
2023/08/07 03:24:47;;;;;;;6.80;4.72;;;;;;;16.04;100.00;99655.66;5205716;28;20032;-74
2023/08/07 03:27:18;;;;;;;7.85;4.60;;;;;;;16.16;100.00;99660.03;5201919;28;20071;-74
2023/08/07 03:29:48;;;;;;;11.63;4.50;;;;;;;16.08;100.00;99666.81;5211223;28;20021;-72
2023/08/07 03:32:18;;;;;;;8.27;4.22;;;;;;;16.11;100.00;99664.81;5208736;28;20048;-74
2023/08/07 03:34:49;;;;;;;10.30;3.85;;;;;;;16.11;100.00;99664.81;5212464;28;20362;-72
2023/08/07 03:37:19;;;;;;;6.63;3.47;;;;;;;16.00;100.00;99666.50;5207177;28;20060;-73
2023/08/07 03:39:49;;;;;;;11.90;4.00;;;;;;;16.08;100.00;99669.47;5193182;28;20028;-72
2023/08/07 03:42:20;;;;;;;9.20;3.67;;;;;;;16.03;100.00;99672.41;5186542;28;20051;-72
2023/08/07 03:44:50;;;;;;;8.20;3.53;;;;;;;16.04;100.00;99682.00;5192013;28;20036;-74
2023/08/07 03:47:20;;;;;;;7.47;3.17;;;;;;;16.06;100.00;99680.09;5209370;28;20048;-73
2023/08/07 03:49:51;;;;;;;7.55;3.53;;;;;;;16.15;100.00;99690.00;5188894;28;20507;-73
2023/08/07 03:52:21;;;;;;;6.75;3.22;;;;;;;16.20;100.00;99684.41;5207700;28;20034;-73
2023/08/07 03:54:51;;;;;;;5.80;3.33;;;;;;;16.14;100.00;99688.31;5205495;28;20070;-73
2023/08/07 03:57:22;;;;;;;4.63;2.90;;;;;;;16.13;100.00;99684.00;5210729;28;20030;-73
2023/08/07 03:59:54;;;;;;;6.00;2.90;;;;;;;16.15;100.00;99700.53;5188425;28;20025;-73
2023/08/07 04:02:25;;;;;;;5.43;3.22;;;;;;;16.09;100.00;99697.50;5193519;28;20028;-73
2023/08/07 04:04:55;;;;;;;5.43;3.30;;;;;;;16.01;100.00;99695.41;5211881;28;20036;-73
2023/08/07 04:07:25;;;;;;;8.48;3.60;;;;;;;16.00;100.00;99688.47;5206968;28;20031;-73
2023/08/07 04:09:56;;;;;;;7.32;3.42;;;;;;;15.99;100.00;99689.41;5203806;28;20025;-73
2023/08/07 04:12:26;;;;;;;5.38;3.25;;;;;;;16.17;100.00;99701.28;5184903;28;20037;-73
2023/08/07 04:14:56;;;;;;;7.20;3.25;;;;;;;16.09;100.00;99695.72;5203420;28;20028;-73
2023/08/07 04:17:27;;;;;;;5.63;3.00;;;;;;;16.11;100.00;99693.81;5206612;28;20090;-73
2023/08/07 04:19:57;;;;;;;6.43;2.97;;;;;;;16.06;100.00;99698.56;5190482;28;20020;-74
2023/08/07 04:22:28;;;;;;;8.57;3.20;;;;;;;16.03;100.00;99696.13;5208012;28;20025;-74
2023/08/07 04:24:59;;;;;;;8.30;3.05;;;;;;;16.21;100.00;99700.09;5203321;28;20029;-73
2023/08/07 04:27:30;;;;;;;6.07;2.92;;;;;;;16.20;100.00;99700.22;5184429;28;20037;-73
2023/08/07 04:30:00;;;;;;;10.23;3.17;;;;;;;16.02;100.00;99706.81;5211677;28;20070;-74
2023/08/07 04:32:30;;;;;;;5.32;2.67;;;;;;;16.20;100.00;99711.59;5186225;28;20491;-74
2023/08/07 04:35:01;;;;;;;7.78;2.97;;;;;;;16.16;100.00;99712.78;5192491;28;20040;-74
2023/08/07 04:37:31;;;;;;;7.57;3.00;;;;;;;16.21;100.00;99712.44;5189490;28;20094;-72
2023/08/07 04:40:01;;;;;;;10.68;3.05;;;;;;;16.21;100.00;99715.09;5210523;28;20021;-74
2023/08/07 04:42:32;;;;;;;9.68;3.42;;;;;;;16.25;100.00;99722.63;5205787;28;20033;-73
2023/08/07 04:45:03;;;;;;;5.55;2.95;;;;;;;16.28;100.00;99721.59;5210708;28;20025;-73
2023/08/07 04:47:33;;;;;;;7.43;3.28;;;;;;;16.22;100.00;99722.88;5190321;28;20029;-73
2023/08/07 04:50:04;;;;;;;5.82;3.08;;;;;;;16.21;100.00;99729.09;5204787;28;20036;-74
2023/08/07 04:52:34;;;;;;;6.80;3.20;;;;;;;16.13;100.00;99730.59;5187367;28;20470;-74
2023/08/07 04:55:05;;;;;;;6.75;3.38;;;;;;;16.19;100.00;99720.44;5204341;28;20021;-73
2023/08/07 04:57:35;;;;;;;10.27;3.35;;;;;;;16.29;100.00;99718.00;5186827;28;20032;-74
2023/08/07 05:00:06;;;;;;;6.60;3.28;;;;;;;16.23;100.00;99734.28;5206999;28;20025;-73
2023/08/07 05:02:36;;;;;;;8.95;2.95;;;;;;;16.28;100.00;99729.50;5206481;28;20033;-73
2023/08/07 05:05:09;;;;;;;9.15;2.90;;;;;;;16.22;100.00;99735.22;5207655;28;20071;-73
2023/08/07 05:07:39;;;;;;;8.82;3.20;;;;;;;16.25;100.00;99730.53;5204730;28;20059;-74
2023/08/07 05:10:09;;;;;;;5.55;2.97;;;;;;;16.36;100.00;99735.94;5182182;28;20021;-74
2023/08/07 05:12:40;;;;;;;8.18;3.05;;;;;;;16.34;100.00;99740.44;5204880;28;20141;-74
2023/08/07 05:15:10;;;;;;;6.13;2.88;;;;;;;16.23;100.00;99742.19;5204896;28;20024;-74
2023/08/07 05:17:40;;;;;;;6.75;3.35;;;;;;;16.31;100.00;99745.94;5191192;28;20029;-74
2023/08/07 05:20:11;;;;;;;9.10;3.80;;;;;;;16.38;100.00;99744.56;5207561;28;20486;-74
2023/08/07 05:22:41;;;;;;;7.05;3.30;;;;;;;16.46;100.00;99739.59;5209698;28;20025;-74
2023/08/07 05:25:15;;;;;;;9.00;3.42;;;;;;;16.41;100.00;99741.72;5208786;28;20024;-73
2023/08/07 05:27:46;;;;;;;4.47;3.00;;;;;;;16.39;100.00;99743.63;5208685;28;20082;-73
2023/08/07 05:30:16;;;;;;;8.68;3.20;;;;;;;16.42;100.00;99753.13;5205691;28;20037;-73
2023/08/07 05:32:46;;;;;;;7.68;3.63;;;;;;;16.38;100.00;99749.03;5209685;28;20033;-73
2023/08/07 05:35:17;;;;;;;7.07;3.47;;;;;;;16.33;100.00;99746.69;5192842;28;20550;-73
2023/08/07 05:37:47;;;;;;;9.05;3.90;;;;;;;16.34;100.00;99750.13;5192229;28;20311;-73
2023/08/07 05:40:17;;;;;;;7.03;3.58;;;;;;;16.39;100.00;99748.91;5213962;28;20066;-73
2023/08/07 05:42:48;;;;;;;6.78;3.50;;;;;;;16.52;100.00;99744.41;5183682;28;20060;-72
2023/08/07 05:45:18;;;;;;;6.22;3.55;;;;;;;16.84;100.00;99741.09;5205644;28;20064;-73
2023/08/07 05:47:49;;;;;;;10.02;3.78;;;;;;;16.71;100.00;99738.66;5206096;28;20472;-72
2023/08/07 05:50:19;;;;;;;9.77;3.80;;;;;;;16.92;100.00;99737.88;5203143;28;20033;-73
2023/08/07 05:52:49;;;;;;;8.63;3.45;;;;;;;16.94;100.00;99741.28;5205189;28;20029;-72
2023/08/07 05:55:20;;;;;;;7.03;3.53;;;;;;;17.10;100.00;99737.34;5206443;28;20037;-73
2023/08/07 05:57:50;;;;;;;6.15;3.50;;;;;;;16.73;100.00;99734.91;5210102;28;20388;-73
2023/08/07 06:00:20;;;;;;;9.75;3.83;;;;;;;16.60;100.00;99742.09;5204405;28;20037;-73
2023/08/07 06:02:50;;;;;;;5.68;3.13;;;;;;;16.62;100.00;99740.16;5205413;28;20104;-73
2023/08/07 06:05:21;;;;;;;8.68;3.97;;;;;;;16.52;100.00;99748.88;5187742;28;20535;-74
2023/08/07 06:07:51;;;;;;;7.43;3.80;;;;;;;16.54;100.00;99741.69;5206095;28;20076;-73
2023/08/07 06:10:21;;;;;;;9.05;3.70;;;;;;;16.39;100.00;99748.91;5189818;28;20039;-73
2023/08/07 06:12:52;;;;;;;8.60;3.78;;;;;;;16.35;100.00;99747.44;5207506;28;20441;-73
2023/08/07 06:15:22;;;;;;;6.47;3.53;;;;;;;16.36;100.00;99743.84;5206387;28;20029;-72
2023/08/07 06:17:53;;;;;;;9.70;3.65;;;;;;;16.15;100.00;99757.69;5206657;28;20076;-72
2023/08/07 06:20:23;;;;;;;7.88;3.45;;;;;;;16.28;100.00;99746.16;5208431;28;20527;-72
2023/08/07 06:22:53;;;;;;;7.80;3.90;;;;;;;16.34;100.00;99755.41;5211670;28;20111;-73
2023/08/07 06:25:24;;;;;;;7.28;3.40;;;;;;;16.33;100.00;99759.00;5211014;28;20463;-72
2023/08/07 06:27:54;;;;;;;8.77;3.88;;;;;;;16.31;100.00;99760.91;5190906;28;20021;-73
2023/08/07 06:30:24;;;;;;;8.10;3.70;;;;;;;16.32;100.00;99758.19;5209325;28;20052;-73
2023/08/07 06:32:55;;;;;;;7.72;3.85;;;;;;;16.31;100.00;99764.41;5207259;28;20033;-73
2023/08/07 06:35:25;;;;;;;7.55;3.72;;;;;;;16.37;100.00;99774.53;5209310;28;20029;-74
2023/08/07 06:37:55;;;;;;;11.68;4.57;;;;;;;16.41;100.00;99764.63;5212183;28;20016;-73
2023/08/07 06:40:26;;;;;;;7.72;3.90;;;;;;;16.34;100.00;99765.97;5187140;28;20621;-73
2023/08/07 06:42:56;;;;;;;6.65;3.50;;;;;;;16.23;100.00;99777.28;5211567;28;20482;-74
2023/08/07 06:45:26;;;;;;;29.13;3.75;;;;;;;16.27;100.00;99772.63;5191653;28;20075;-73
2023/08/07 06:47:56;;;;;;;5.78;3.15;;;;;;;16.23;100.00;99774.66;5209211;28;20079;-73
2023/08/07 06:50:27;;;;;;;7.50;3.33;;;;;;;16.24;100.00;99778.97;5211446;28;20032;-73
2023/08/07 06:52:57;;;;;;;7.53;3.50;;;;;;;16.38;100.00;99776.22;5208576;28;20026;-74
2023/08/07 06:55:27;;;;;;;5.72;3.47;;;;;;;16.43;100.00;99775.91;5194421;28;20029;-72
2023/08/07 06:57:58;;;;;;;6.75;3.22;;;;;;;16.51;100.00;99773.53;5209534;28;20122;-73
2023/08/07 07:00:28;;;;;;;5.57;3.15;;;;;;;16.33;100.00;99778.31;5209764;28;20104;-73
2023/08/07 07:02:58;;;;;;;5.85;3.28;;;;;;;16.37;100.00;99786.91;5209869;28;20086;-74
2023/08/07 07:05:30;;;;;;;8.50;3.72;;;;;;;16.29;100.00;99781.28;5209285;28;20035;-73
2023/08/07 07:08:00;;;;;;;5.78;3.70;;;;;;;16.47;100.00;99783.50;5212201;28;20025;-73
2023/08/07 07:10:31;;;;;;;7.95;3.40;;;;;;;16.39;100.00;99792.91;5209265;28;20482;-73
2023/08/07 07:13:01;;;;;;;6.85;3.58;;;;;;;16.58;100.00;99799.38;5209085;28;20044;-73
2023/08/07 07:15:32;;;;;;;7.25;3.63;;;;;;;16.54;100.00;99792.63;5209466;28;20414;-73
2023/08/07 07:18:02;;;;;;;5.35;3.03;;;;;;;16.67;100.00;99800.50;5209768;28;20016;-73
2023/08/07 07:20:33;;;;;;;5.97;3.47;;;;;;;16.72;100.00;99809.78;5211221;28;20021;-73
2023/08/07 07:23:03;;;;;;;4.75;3.30;;;;;;;16.75;100.00;99803.44;5212006;28;20973;-73
2023/08/07 07:25:33;;;;;;;6.97;3.17;;;;;;;16.60;100.00;99802.75;5212363;28;20064;-74
2023/08/07 07:28:04;;;;;;;6.93;3.03;;;;;;;16.65;100.00;99812.97;5203717;23;20042;-73
2023/08/07 07:30:34;;;;;;;5.32;2.92;;;;;;;16.71;100.00;99813.38;5148736;28;20119;-74
2023/08/07 07:33:04;;;;;;;7.30;3.28;;;;;;;16.65;100.00;99811.19;5157124;28;20047;-73
2023/08/07 07:35:38;;;;;;;4.03;2.40;;;;;;;16.53;100.00;99817.31;5154182;28;20030;-74
2023/08/07 07:38:10;;;;;;;5.38;2.35;;;;;;;16.67;100.00;99816.31;5142209;28;20044;-74
2023/08/07 07:40:40;;;;;;;6.70;2.95;;;;;;;16.65;100.00;99810.31;5129700;28;20029;-73
2023/08/07 07:43:10;;;;;;;6.53;2.20;;;;;;;16.83;100.00;99829.13;5131864;28;20031;-74
2023/08/07 07:45:41;;;;;;;6.20;3.10;;;;;;;16.97;100.00;99828.16;5130875;28;20027;-72
2023/08/07 07:48:11;;;;;;;5.25;2.33;;;;;;;17.20;100.00;99824.66;5124986;28;20083;-74
2023/08/07 07:50:42;;;;;;;4.47;2.17;;;;;;;17.23;100.00;99827.91;5127980;28;20038;-72
2023/08/07 07:53:12;;;;;;;7.38;2.33;;;;;;;17.30;100.00;99823.03;5124583;28;20557;-74
2023/08/07 07:55:47;;;;;;;3.45;1.80;;;;;;;17.49;100.00;99823.34;5127134;28;20038;-72
2023/08/07 07:58:17;;;;;;;3.55;1.70;;;;;;;17.67;100.00;99829.88;5130291;28;20489;-74
2023/08/07 08:00:47;;;;;;;3.90;1.67;;;;;;;17.61;100.00;99828.53;5129821;28;20046;-72
2023/08/07 08:03:18;;;;;;;3.35;1.50;;;;;;;17.70;100.00;99834.94;5126898;28;20244;-73
2023/08/07 08:05:52;;;;;;;4.75;2.03;;;;;;;17.86;100.00;99830.97;5122595;28;20055;-72
2023/08/07 08:08:22;;;;;;;3.58;1.40;;;;;;;18.05;100.00;99838.34;5129307;28;20038;-73
2023/08/07 08:10:52;;;;;;;5.03;2.03;;;;;;;18.41;100.00;99823.13;5122815;28;20035;-72
2023/08/07 08:13:25;;;;;;;2.63;1.50;;;;;;;18.39;100.00;99837.41;5128910;28;20500;-72
2023/08/07 08:15:55;;;;;;;4.70;1.60;;;;;;;18.46;100.00;99833.31;5125819;28;20023;-73
2023/08/07 08:18:25;;;;;;;2.30;1.40;;;;;;;18.77;100.00;99839.53;5128303;28;20027;-73
2023/08/07 08:20:56;;;;;;;5.30;1.65;;;;;;;18.92;100.00;99840.94;5109276;28;20073;-74
2023/08/07 08:23:26;;;;;;;3.80;1.40;;;;;;;18.45;100.00;99845.72;5129858;28;20542;-72
2023/08/07 08:25:56;;;;;;;2.13;1.40;;;;;;;18.56;100.00;99844.84;5132425;28;20042;-73
2023/08/07 08:28:27;;;;;;;2.55;1.30;;;;;;;18.33;100.00;99851.13;5132489;28;20030;-73
2023/08/07 08:30:57;;;;;;;6.05;1.33;;;;;;;18.32;100.00;99844.16;5128102;28;20081;-73
2023/08/07 08:33:27;;;;;;;3.33;1.40;;;;;;;18.39;100.00;99843.56;5132472;28;20030;-73
2023/08/07 08:35:57;;;;;;;1.98;1.10;;;;;;;18.30;100.00;99844.28;5125312;28;20054;-73
2023/08/07 08:38:32;;;;;;;2.35;1.27;;;;;;;19.51;100.00;99836.91;5128049;28;20122;-74
2023/08/07 08:41:03;;;;;;;5.60;1.63;;;;;;;19.34;100.00;99848.06;5125820;28;20412;-73
2023/08/07 08:43:36;;;;;;;2.22;1.30;;;;;;;19.20;100.00;99853.66;5127417;28;20125;-73
2023/08/07 08:46:08;;;;;;;2.67;1.20;;;;;;;18.82;100.00;99853.25;5127675;28;20370;-74
2023/08/07 08:48:40;;;;;;;3.00;1.25;;;;;;;18.63;100.00;99849.53;5128886;28;20039;-73
2023/08/07 08:51:12;;;;;;;3.00;1.35;;;;;;;18.51;100.00;99857.63;5127483;28;20622;-73
2023/08/07 08:53:42;;;;;;;2.60;1.50;;;;;;;18.68;100.00;99860.59;5130874;28;20087;-73
2023/08/07 08:56:13;;;;;;;2.60;1.20;;;;;;;19.03;100.00;99851.50;5132933;28;20022;-73
2023/08/07 08:58:43;;;;;;;2.92;1.00;;;;;;;19.32;100.00;99855.28;5133896;28;20393;-73
2023/08/07 09:01:14;;;;;;;2.63;1.10;;;;;;;19.35;100.00;99847.09;5142298;28;20034;-73
2023/08/07 09:03:45;;;;;;;3.20;1.10;;;;;;;19.76;98.58;99844.44;5129974;28;20023;-73
2023/08/07 09:06:16;;;;;;;2.67;0.90;;;;;;;19.63;98.85;99841.13;5129974;28;20437;-72
2023/08/07 09:08:47;;;;;;;3.78;0.90;;;;;;;19.46;99.85;99843.53;5127158;28;20523;-73
2023/08/07 09:11:19;;;;;;;2.78;1.00;;;;;;;19.10;99.93;99852.69;5127015;28;20121;-72
2023/08/07 09:13:49;;;;;;;1.85;1.05;;;;;;;18.65;100.00;99860.03;5137692;28;20091;-72
2023/08/07 09:16:20;;;;;;;4.72;1.20;;;;;;;18.51;100.00;99866.38;5129830;28;20043;-72
2023/08/07 09:18:51;;;;;;;2.83;1.20;;;;;;;18.17;100.00;99863.84;5124633;28;20042;-71
2023/08/07 09:21:21;;;;;;;3.63;1.00;;;;;;;18.02;100.00;99865.03;5129352;28;20047;-72
2023/08/07 09:23:52;;;;;;;7.22;1.70;;;;;;;17.92;100.00;99874.63;5127914;28;20081;-72
2023/08/07 09:26:25;;;;;;;5.35;1.60;;;;;;;17.74;100.00;99873.38;5134434;28;20137;-72
2023/08/07 09:28:57;;;;;;;2.20;1.10;;;;;;;18.01;100.00;99868.63;5129603;28;20481;-72
2023/08/07 09:31:30;;;;;;;3.95;1.40;;;;;;;18.45;100.00;99873.97;5128685;28;20042;-71
2023/08/07 09:34:02;;;;;;;6.40;1.40;;;;;;;19.28;100.00;99869.75;5127082;28;20114;-73
2023/08/07 09:36:34;;;;;;;5.35;1.30;;;;;;;18.95;100.00;99880.41;5122111;28;20146;-73
2023/08/07 09:39:04;;;;;;;2.50;1.38;;;;;;;18.56;100.00;99892.50;5121147;28;20027;-72
2023/08/07 09:41:35;;;;;;;2.22;1.00;;;;;;;17.85;100.00;99892.75;5125782;28;20051;-72
2023/08/07 09:44:10;;;;;;;3.10;1.15;;;;;;;17.80;100.00;99894.91;5126007;28;20034;-74
2023/08/07 09:46:42;;;;;;;3.08;1.00;;;;;;;17.84;100.00;99900.81;5134628;28;20040;-72
2023/08/07 09:49:12;;;;;;;3.03;1.10;;;;;;;17.68;100.00;99897.63;5133861;28;20503;-74
2023/08/07 09:51:44;;;;;;;2.20;1.20;;;;;;;17.62;100.00;99911.31;5128230;28;20026;-74
2023/08/07 09:54:15;;;;;;;3.83;1.10;;;;;;;17.74;100.00;99927.09;5131750;28;20065;-73
2023/08/07 09:56:47;;;;;;;4.78;1.50;;;;;;;17.20;100.00;99927.66;5128953;28;20292;-75
2023/08/07 09:59:17;;;;;;;4.65;1.00;;;;;;;16.95;100.00;99938.31;5134685;28;20081;-73
2023/08/07 10:01:49;;;;;;;3.30;1.00;;;;;;;16.78;100.00;99941.31;5126031;28;20478;-73
2023/08/07 10:04:20;;;;;;;2.85;0.90;;;;;;;16.98;100.00;99927.53;5132317;28;20043;-74
2023/08/07 10:06:51;;;;;;;3.53;0.95;;;;;;;17.24;100.00;99934.38;5126375;28;20027;-74
2023/08/07 10:09:21;;;;;;;3.10;1.10;;;;;;;17.39;100.00;99926.22;5128400;28;20054;-75
2023/08/07 10:11:51;;;;;;;2.53;1.00;;;;;;;17.52;100.00;99931.44;5125167;28;20074;-75
2023/08/07 10:14:23;;;;;;;3.85;1.30;;;;;;;17.47;100.00;99930.94;5132120;28;20506;-75
2023/08/07 10:16:53;;;;;;;5.43;1.45;;;;;;;17.80;100.00;99928.44;5133014;28;20449;-75
2023/08/07 10:19:24;;;;;;;4.22;1.20;;;;;;;17.75;100.00;99915.56;5134215;28;20081;-74
2023/08/07 10:21:55;;;;;;;3.25;1.10;;;;;;;17.81;100.00;99920.38;5125503;28;20059;-75
2023/08/07 10:24:26;;;;;;;3.45;1.50;;;;;;;18.49;100.00;99915.97;5130040;28;20092;-74
2023/08/07 10:26:58;;;;;;;4.75;1.52;;;;;;;19.01;100.00;99919.66;5143020;28;20036;-73
2023/08/07 10:29:29;;;;;;;7.00;1.67;;;;;;;19.36;100.00;99915.03;5130608;28;20405;-75
2023/08/07 10:32:01;;;;;;;10.05;1.80;;;;;;;19.53;100.00;99906.53;5127076;28;20020;-73
2023/08/07 10:34:34;;;;;;;9.52;1.98;;;;;;;18.91;100.00;99916.06;5132959;28;20122;-75
2023/08/07 10:37:08;;;;;;;6.68;1.25;;;;;;;19.29;100.00;99921.78;5127226;28;20110;-75
2023/08/07 10:40:03;;;;;;;7.05;1.80;;;;;;;19.05;100.00;99921.09;5133976;28;20138;-75
2023/08/07 10:42:56;;;;;;;5.70;1.52;;;;;;;19.52;100.00;99918.09;5133372;28;20139;-75
2023/08/07 10:45:28;;;;;;;5.65;1.52;;;;;;;19.51;100.00;99916.41;5131280;28;20049;-75
2023/08/07 10:48:01;;;;;;;5.65;1.63;;;;;;;19.53;100.00;99914.47;5126750;28;20039;-75
2023/08/07 10:50:32;;;;;;;4.90;1.63;;;;;;;19.59;100.00;99906.00;5127917;28;20559;-75
2023/08/07 10:53:03;;;;;;;7.10;1.48;;;;;;;19.64;100.00;99906.47;5125761;28;20031;-74
2023/08/07 10:55:47;;;;;;;6.03;1.90;;;;;;;19.56;100.00;99914.22;5128968;28;20042;-75
2023/08/07 10:58:38;;;;;;;7.85;1.70;;;;;;;19.47;100.00;99922.09;5127660;28;20539;-73
2023/08/07 11:01:19;;;;;;;6.07;1.77;;;;;;;19.03;100.00;99930.97;5138491;28;20412;-73
2023/08/07 11:03:51;;;;;;;3.75;1.50;;;;;;;18.56;100.00;99922.47;5125774;28;20141;-72
2023/08/07 11:06:31;;;;;;;6.88;1.65;;;;;;;18.60;100.00;99923.06;5132779;28;20359;-74
2023/08/07 11:09:06;;;;;;;6.07;1.30;;;;;;;18.76;100.00;99927.88;5131184;28;20066;-72
2023/08/07 11:11:41;;;;;;;2.97;1.38;;;;;;;19.23;100.00;99927.59;5131837;28;20412;-74
2023/08/07 11:14:14;;;;;;;5.72;1.63;;;;;;;19.47;100.00;99924.75;5145161;28;20080;-74
2023/08/07 11:16:46;;;;;;;4.13;1.58;;;;;;;19.50;100.00;99922.69;5129680;28;20371;-74
2023/08/07 11:19:18;;;;;;;4.47;1.42;;;;;;;19.58;100.00;99917.59;5127931;28;20019;-73
2023/08/07 11:21:49;;;;;;;6.35;1.17;;;;;;;19.44;100.00;99931.13;5125931;28;20031;-72
2023/08/07 11:24:21;;;;;;;4.20;1.00;;;;;;;19.39;100.00;99933.31;5126422;28;20034;-73
2023/08/07 11:26:52;;;;;;;2.72;0.75;;;;;;;19.13;100.00;99931.06;5122009;28;20412;-74
2023/08/07 11:29:25;;;;;;;5.57;1.00;;;;;;;19.03;98.49;99935.41;5128548;28;20042;-74
2023/08/07 11:31:56;;;;;;;5.57;0.93;;;;;;;19.15;100.00;99945.03;5121941;28;20062;-74
2023/08/07 11:34:26;;;;;;;10.73;1.02;;;;;;;19.30;98.89;99942.00;5122286;28;20516;-74
2023/08/07 11:36:58;;;;;;;2.47;0.68;;;;;;;19.44;96.07;99936.44;5126988;28;20074;-73
2023/08/07 11:39:28;;;;;;;4.05;0.82;;;;;;;19.51;94.54;99927.03;5125626;28;20300;-73
2023/08/07 11:41:59;;;;;;;5.10;1.05;;;;;;;19.39;91.63;99943.94;5130014;28;20039;-74